createdAt,value
2023-06-08T00:00:13.504Z,100.00
2023-06-08T00:01:13.380Z,100.00
2023-06-08T00:02:13.351Z,100.00
2023-06-08T00:03:13.210Z,100.00
2023-06-08T00:04:13.293Z,100.00
2023-06-08T00:05:13.464Z,100.00
2023-06-08T00:06:13.506Z,100.00
2023-06-08T00:07:13.878Z,100.00
2023-06-08T00:08:12.849Z,100.00
2023-06-08T00:09:13.839Z,100.00
2023-06-08T00:10:13.988Z,100.00
2023-06-08T00:11:12.908Z,100.00
2023-06-08T00:12:12.749Z,100.00
2023-06-08T00:13:13.782Z,100.00
2023-06-08T00:14:13.800Z,100.00
2023-06-08T00:15:13.932Z,100.00
2023-06-08T00:16:12.769Z,100.00
2023-06-08T00:17:13.931Z,100.00
2023-06-08T00:18:12.944Z,100.00
2023-06-08T00:19:13.019Z,100.00
2023-06-08T00:20:12.896Z,100.00
2023-06-08T00:21:12.776Z,100.00
2023-06-08T00:22:13.629Z,100.00
2023-06-08T00:23:13.538Z,100.00
2023-06-08T00:24:13.549Z,100.00
2023-06-08T00:25:13.429Z,100.00
2023-06-08T00:26:13.254Z,100.00
2023-06-08T00:27:13.126Z,100.00
2023-06-08T00:28:14.349Z,100.00
2023-06-08T00:29:13.456Z,100.00
2023-06-08T00:30:13.327Z,100.00
2023-06-08T00:31:13.204Z,100.00
2023-06-08T00:32:13.110Z,100.00
2023-06-08T00:33:12.986Z,100.00
2023-06-08T00:34:12.790Z,100.00
2023-06-08T00:35:13.662Z,100.00
2023-06-08T00:36:13.460Z,100.00
2023-06-08T00:37:13.348Z,100.00
2023-06-08T00:38:13.179Z,100.00
2023-06-08T00:39:13.019Z,100.00
2023-06-08T00:40:12.793Z,100.00
2023-06-08T00:41:13.731Z,100.00
2023-06-08T00:42:13.882Z,100.00
2023-06-08T00:43:13.935Z,100.00
2023-06-08T00:44:12.788Z,100.00
2023-06-08T00:45:13.677Z,100.00
2023-06-08T00:46:13.785Z,100.00
2023-06-08T00:47:15.295Z,100.00
2023-06-08T00:48:12.797Z,100.00
2023-06-08T00:49:13.632Z,100.00
2023-06-08T00:50:13.579Z,100.00
2023-06-08T00:51:13.773Z,100.00
2023-06-08T00:52:13.669Z,100.00
2023-06-08T00:53:13.624Z,100.00
2023-06-08T00:54:13.765Z,100.00
2023-06-08T00:55:13.604Z,100.00
2023-06-08T00:56:13.636Z,100.00
2023-06-08T00:57:13.784Z,100.00
2023-06-08T00:58:13.917Z,100.00
2023-06-08T00:59:13.173Z,100.00
2023-06-08T01:00:13.422Z,100.00
2023-06-08T01:01:13.728Z,100.00
2023-06-08T01:02:13.885Z,100.00
2023-06-08T01:03:13.754Z,100.00
2023-06-08T01:04:13.997Z,100.00
2023-06-08T01:05:12.834Z,100.00
2023-06-08T01:06:13.850Z,100.00
2023-06-08T01:07:13.679Z,100.00
2023-06-08T01:08:13.685Z,100.00
2023-06-08T01:09:13.664Z,100.00
2023-06-08T01:10:13.926Z,100.00
2023-06-08T01:11:13.056Z,100.00
2023-06-08T01:12:12.978Z,100.00
2023-06-08T01:13:12.831Z,100.00
2023-06-08T01:14:13.683Z,100.00
2023-06-08T01:15:13.717Z,100.00
2023-06-08T01:16:13.567Z,100.00
2023-06-08T01:17:13.373Z,100.00
2023-06-08T01:18:13.251Z,100.00
2023-06-08T01:19:13.397Z,100.00
2023-06-08T01:20:13.470Z,100.00
2023-06-08T01:21:13.226Z,100.00
2023-06-08T01:22:13.362Z,100.00
2023-06-08T01:23:13.244Z,100.00
2023-06-08T01:24:13.728Z,100.00
2023-06-08T01:25:12.897Z,100.00
2023-06-08T01:26:12.836Z,100.00
2023-06-08T01:27:13.745Z,100.00
2023-06-08T01:28:13.849Z,100.00
2023-06-08T01:29:12.880Z,100.00
2023-06-08T01:30:12.764Z,100.00
2023-06-08T01:31:13.673Z,100.00
2023-06-08T01:32:13.762Z,100.00
2023-06-08T01:33:13.999Z,100.00
2023-06-08T01:34:12.883Z,100.00
2023-06-08T01:35:13.750Z,100.00
2023-06-08T01:36:13.613Z,100.00
2023-06-08T01:37:13.354Z,100.00
2023-06-08T01:38:13.231Z,100.00
2023-06-08T01:39:13.055Z,100.00
2023-06-08T01:40:12.877Z,100.00
2023-06-08T01:41:13.634Z,100.00
2023-06-08T01:42:13.506Z,100.00
2023-06-08T01:43:13.436Z,100.00
2023-06-08T01:44:13.205Z,100.00
2023-06-08T01:45:13.201Z,100.00
2023-06-08T01:46:13.135Z,100.00
2023-06-08T01:47:13.239Z,100.00
2023-06-08T01:48:13.065Z,100.00
2023-06-08T01:49:12.792Z,100.00
2023-06-08T01:50:13.574Z,100.00
2023-06-08T01:51:13.660Z,100.00
2023-06-08T01:52:13.651Z,100.00
2023-06-08T01:53:13.486Z,100.00
2023-06-08T01:54:13.645Z,100.00
2023-06-08T01:55:13.415Z,100.00
2023-06-08T01:56:13.526Z,100.00
2023-06-08T01:57:13.659Z,100.00
2023-06-08T01:58:13.606Z,100.00
2023-06-08T01:59:13.762Z,100.00
2023-06-08T02:00:13.559Z,100.00
2023-06-08T02:01:13.629Z,100.00
2023-06-08T02:02:13.566Z,100.00
2023-06-08T02:03:13.415Z,100.00
2023-06-08T02:04:13.361Z,100.00
2023-06-08T02:05:13.139Z,100.00
2023-06-08T02:06:13.000Z,100.00
2023-06-08T02:07:12.840Z,100.00
2023-06-08T02:08:13.814Z,100.00
2023-06-08T02:09:13.658Z,100.00
2023-06-08T02:10:13.515Z,100.00
2023-06-08T02:11:13.386Z,100.00
2023-06-08T02:12:13.448Z,100.00
2023-06-08T02:13:13.195Z,100.00
2023-06-08T02:14:13.034Z,100.00
2023-06-08T02:15:12.810Z,100.00
2023-06-08T02:16:13.758Z,100.00
2023-06-08T02:17:13.675Z,100.00
2023-06-08T02:18:13.678Z,100.00
2023-06-08T02:19:13.540Z,100.00
2023-06-08T02:20:13.367Z,100.00
2023-06-08T02:21:13.493Z,100.00
2023-06-08T02:22:13.606Z,100.00
2023-06-08T02:23:14.054Z,100.00
2023-06-08T02:24:13.343Z,100.00
2023-06-08T02:25:13.239Z,100.00
2023-06-08T02:26:13.149Z,100.00
2023-06-08T02:27:13.024Z,100.00
2023-06-08T02:28:13.156Z,100.00
2023-06-08T02:29:12.975Z,100.00
2023-06-08T02:30:13.284Z,100.00
2023-06-08T02:31:13.318Z,100.00
2023-06-08T02:32:13.125Z,100.00
2023-06-08T02:33:13.055Z,100.00
2023-06-08T02:34:13.696Z,100.00
2023-06-08T02:35:13.726Z,100.00
2023-06-08T02:36:14.015Z,100.00
2023-06-08T02:37:13.043Z,100.00
2023-06-08T02:38:12.989Z,100.00
2023-06-08T02:39:13.283Z,100.00
2023-06-08T02:40:13.083Z,100.00
2023-06-08T02:41:12.997Z,100.00
2023-06-08T02:42:13.132Z,100.00
2023-06-08T02:43:12.940Z,100.00
2023-06-08T02:44:12.748Z,100.00
2023-06-08T02:45:13.530Z,100.00
2023-06-08T02:46:13.546Z,100.00
2023-06-08T02:47:13.630Z,100.00
2023-06-08T02:48:13.570Z,100.00
2023-06-08T02:49:13.333Z,100.00
2023-06-08T02:50:13.188Z,100.00
2023-06-08T02:51:12.990Z,100.00
2023-06-08T02:52:12.702Z,100.00
2023-06-08T02:53:13.461Z,100.00
2023-06-08T02:54:13.166Z,100.00
2023-06-08T02:55:12.900Z,100.00
2023-06-08T02:56:12.749Z,100.00
2023-06-08T02:57:18.580Z,100.00
2023-06-08T02:58:13.481Z,100.00
2023-06-08T02:59:13.487Z,100.00
2023-06-08T03:00:13.526Z,100.00
2023-06-08T03:01:20.983Z,100.00
2023-06-08T03:02:13.369Z,100.00
2023-06-08T03:03:13.681Z,100.00
2023-06-08T03:04:13.744Z,100.00
2023-06-08T03:05:13.820Z,100.00
2023-06-08T03:06:13.620Z,100.00
2023-06-08T03:07:13.405Z,100.00
2023-06-08T03:08:13.195Z,100.00
2023-06-08T03:09:13.400Z,100.00
2023-06-08T03:10:13.311Z,100.00
2023-06-08T03:11:13.039Z,100.00
2023-06-08T03:12:13.511Z,100.00
2023-06-08T03:13:13.825Z,100.00
2023-06-08T03:14:13.859Z,100.00
2023-06-08T03:15:13.942Z,100.00
2023-06-08T03:16:12.839Z,100.00
2023-06-08T03:17:13.644Z,100.00
2023-06-08T03:18:13.418Z,100.00
2023-06-08T03:19:13.161Z,100.00
2023-06-08T03:20:12.953Z,100.00
2023-06-08T03:21:12.937Z,100.00
2023-06-08T03:22:12.829Z,100.00
2023-06-08T03:23:13.661Z,100.00
2023-06-08T03:24:13.502Z,100.00
2023-06-08T03:25:13.319Z,100.00
2023-06-08T03:26:13.065Z,100.00
2023-06-08T03:27:12.878Z,100.00
2023-06-08T03:28:13.650Z,100.00
2023-06-08T03:29:13.878Z,100.00
2023-06-08T03:30:14.456Z,100.00
2023-06-08T03:31:13.810Z,100.00
2023-06-08T03:32:13.694Z,100.00
2023-06-08T03:33:13.437Z,100.00
2023-06-08T03:34:13.227Z,100.00
2023-06-08T03:35:13.313Z,100.00
2023-06-08T03:36:13.131Z,100.00
2023-06-08T03:37:12.981Z,100.00
2023-06-08T03:38:12.802Z,100.00
2023-06-08T03:39:13.916Z,100.00
2023-06-08T03:40:12.822Z,100.00
2023-06-08T03:41:13.623Z,100.00
2023-06-08T03:42:13.592Z,100.00
2023-06-08T03:43:13.591Z,100.00
2023-06-08T03:44:13.593Z,100.00
2023-06-08T03:45:13.419Z,100.00
2023-06-08T03:46:13.388Z,100.00
2023-06-08T03:47:13.241Z,100.00
2023-06-08T03:48:13.300Z,100.00
2023-06-08T03:49:13.175Z,100.00
2023-06-08T03:50:13.233Z,100.00
2023-06-08T03:51:13.416Z,100.00
2023-06-08T03:52:13.363Z,100.00
2023-06-08T03:53:13.185Z,100.00
2023-06-08T03:54:13.097Z,100.00
2023-06-08T03:55:12.922Z,100.00
2023-06-08T03:56:12.831Z,100.00
2023-06-08T03:57:13.709Z,100.00
2023-06-08T03:58:13.432Z,100.00
2023-06-08T03:59:14.391Z,100.00
2023-06-08T04:00:13.564Z,100.00
2023-06-08T04:01:13.506Z,100.00
2023-06-08T04:02:13.683Z,100.00
2023-06-08T04:03:13.911Z,100.00
2023-06-08T04:04:13.032Z,100.00
2023-06-08T04:05:12.884Z,100.00
2023-06-08T04:06:13.988Z,100.00
2023-06-08T04:07:13.094Z,100.00
2023-06-08T04:08:13.014Z,100.00
2023-06-08T04:09:13.118Z,100.00
2023-06-08T04:10:13.085Z,100.00
2023-06-08T04:11:12.878Z,100.00
2023-06-08T04:12:13.946Z,100.00
2023-06-08T04:13:12.755Z,100.00
2023-06-08T04:14:13.610Z,100.00
2023-06-08T04:15:13.432Z,100.00
2023-06-08T04:16:13.263Z,100.00
2023-06-08T04:17:13.228Z,100.00
2023-06-08T04:18:13.001Z,100.00
2023-06-08T04:19:13.126Z,100.00
2023-06-08T04:20:12.969Z,100.00
2023-06-08T04:21:13.000Z,100.00
2023-06-08T04:22:12.949Z,100.00
2023-06-08T04:23:14.001Z,100.00
2023-06-08T04:24:12.902Z,100.00
2023-06-08T04:25:13.004Z,100.00
2023-06-08T04:26:12.781Z,100.00
2023-06-08T04:27:13.676Z,100.00
2023-06-08T04:28:13.568Z,100.00
2023-06-08T04:29:13.516Z,100.00
2023-06-08T04:30:13.449Z,100.00
2023-06-08T04:31:13.404Z,100.00
2023-06-08T04:32:14.382Z,100.00
2023-06-08T04:33:13.342Z,100.00
2023-06-08T04:34:13.312Z,100.00
2023-06-08T04:35:13.252Z,100.00
2023-06-08T04:36:13.198Z,100.00
2023-06-08T04:37:12.984Z,100.00
2023-06-08T04:38:14.556Z,100.00
2023-06-08T04:39:13.629Z,100.00
2023-06-08T04:40:13.433Z,100.00
2023-06-08T04:41:13.658Z,100.00
2023-06-08T04:42:13.467Z,100.00
2023-06-08T04:43:13.341Z,100.00
2023-06-08T04:44:13.340Z,100.00
2023-06-08T04:45:13.234Z,100.00
2023-06-08T04:46:13.101Z,100.00
2023-06-08T04:47:13.088Z,100.00
2023-06-08T04:48:13.034Z,100.00
2023-06-08T04:49:12.757Z,100.00
2023-06-08T04:50:13.785Z,100.00
2023-06-08T04:51:13.705Z,100.00
2023-06-08T04:52:13.682Z,100.00
2023-06-08T04:53:13.673Z,100.00
2023-06-08T04:54:13.697Z,100.00
2023-06-08T04:55:13.678Z,100.00
2023-06-08T04:56:13.500Z,100.00
2023-06-08T04:57:13.399Z,100.00
2023-06-08T04:58:13.417Z,100.00
2023-06-08T04:59:13.329Z,100.00
2023-06-08T05:00:13.130Z,100.00
2023-06-08T05:01:13.045Z,100.00
2023-06-08T05:02:12.922Z,100.00
2023-06-08T05:03:12.954Z,100.00
2023-06-08T05:04:13.020Z,100.00
2023-06-08T05:05:12.870Z,100.00
2023-06-08T05:06:13.809Z,100.00
2023-06-08T05:07:13.610Z,100.00
2023-06-08T05:08:13.431Z,100.00
2023-06-08T05:09:13.229Z,100.00
2023-06-08T05:10:13.277Z,100.00
2023-06-08T05:11:13.333Z,100.00
2023-06-08T05:12:13.094Z,100.00
2023-06-08T05:13:12.958Z,100.00
2023-06-08T05:14:12.737Z,100.00
2023-06-08T05:15:13.793Z,100.00
2023-06-08T05:16:13.879Z,100.00
2023-06-08T05:17:12.912Z,100.00
2023-06-08T05:18:12.898Z,100.00
2023-06-08T05:19:12.807Z,100.00
2023-06-08T05:20:13.787Z,100.00
2023-06-08T05:21:13.692Z,100.00
2023-06-08T05:22:13.445Z,100.00
2023-06-08T05:23:13.565Z,100.00
2023-06-08T05:24:13.508Z,100.00
2023-06-08T05:25:13.511Z,100.00
2023-06-08T05:26:13.401Z,100.00
2023-06-08T05:27:13.737Z,100.00
2023-06-08T05:28:13.725Z,100.00
2023-06-08T05:29:13.817Z,100.00
2023-06-08T05:30:13.717Z,100.00
2023-06-08T05:31:13.668Z,100.00
2023-06-08T05:32:13.544Z,100.00
2023-06-08T05:33:13.821Z,100.00
2023-06-08T05:34:14.129Z,100.00
2023-06-08T05:35:13.080Z,100.00
2023-06-08T05:36:12.866Z,100.00
2023-06-08T05:37:13.790Z,100.00
2023-06-08T05:38:13.630Z,100.00
2023-06-08T05:39:13.676Z,100.00
2023-06-08T05:40:13.506Z,100.00
2023-06-08T05:41:13.312Z,100.00
2023-06-08T05:42:13.096Z,100.00
2023-06-08T05:43:12.868Z,100.00
2023-06-08T05:44:12.711Z,100.00
2023-06-08T05:45:13.605Z,100.00
2023-06-08T05:46:13.336Z,100.00
2023-06-08T05:47:13.248Z,100.00
2023-06-08T05:48:13.211Z,100.00
2023-06-08T05:49:13.236Z,100.00
2023-06-08T05:50:13.230Z,100.00
2023-06-08T05:51:13.160Z,100.00
2023-06-08T05:52:13.285Z,100.00
2023-06-08T05:53:13.051Z,100.00
2023-06-08T05:54:12.853Z,100.00
2023-06-08T05:55:13.816Z,100.00
2023-06-08T05:56:13.618Z,100.00
2023-06-08T05:57:13.470Z,100.00
2023-06-08T05:58:13.390Z,100.00
2023-06-08T05:59:13.322Z,100.00
2023-06-08T06:00:13.389Z,100.00
2023-06-08T06:01:13.542Z,100.00
2023-06-08T06:02:13.433Z,100.00
2023-06-08T06:03:13.366Z,100.00
2023-06-08T06:04:26.250Z,100.00
2023-06-08T06:05:13.588Z,100.00
2023-06-08T06:06:13.641Z,100.00
2023-06-08T06:07:13.652Z,100.00
2023-06-08T06:08:13.380Z,100.00
2023-06-08T06:09:13.344Z,100.00
2023-06-08T06:10:13.251Z,100.00
2023-06-08T06:11:13.218Z,100.00
2023-06-08T06:12:13.355Z,100.00
2023-06-08T06:13:13.222Z,100.00
2023-06-08T06:14:13.220Z,100.00
2023-06-08T06:15:13.041Z,100.00
2023-06-08T06:16:15.699Z,100.00
2023-06-08T06:17:13.300Z,100.00
2023-06-08T06:18:13.352Z,100.00
2023-06-08T06:19:13.063Z,100.00
2023-06-08T06:20:12.908Z,100.00
2023-06-08T06:21:12.730Z,100.00
2023-06-08T06:22:13.635Z,100.00
2023-06-08T06:23:13.635Z,100.00
2023-06-08T06:24:13.912Z,100.00
2023-06-08T06:25:12.795Z,100.00
2023-06-08T06:26:13.643Z,100.00
2023-06-08T06:27:13.470Z,100.00
2023-06-08T06:28:13.268Z,100.00
2023-06-08T06:29:13.718Z,100.00
2023-06-08T06:30:13.558Z,100.00
2023-06-08T06:31:13.535Z,100.00
2023-06-08T06:32:13.602Z,100.00
2023-06-08T06:33:13.715Z,100.00
2023-06-08T06:34:13.730Z,100.00
2023-06-08T06:35:13.609Z,100.00
2023-06-08T06:36:13.572Z,100.00
2023-06-08T06:37:13.646Z,100.00
2023-06-08T06:38:13.912Z,100.00
2023-06-08T06:39:12.645Z,100.00
2023-06-08T06:40:13.606Z,100.00
2023-06-08T06:41:13.364Z,100.00
2023-06-08T06:42:13.235Z,100.00
2023-06-08T06:43:13.039Z,100.00
2023-06-08T06:44:13.028Z,100.00
2023-06-08T06:45:12.795Z,100.00
2023-06-08T06:46:13.619Z,100.00
2023-06-08T06:47:13.620Z,100.00
2023-06-08T06:48:13.505Z,100.00
2023-06-08T06:49:13.442Z,100.00
2023-06-08T06:50:13.340Z,100.00
2023-06-08T06:51:13.292Z,100.00
2023-06-08T06:52:13.119Z,100.00
2023-06-08T06:53:13.022Z,100.00
2023-06-08T06:54:12.828Z,100.00
2023-06-08T06:55:13.703Z,100.00
2023-06-08T06:56:13.518Z,100.00
2023-06-08T06:57:13.359Z,100.00
2023-06-08T06:58:13.498Z,100.00
2023-06-08T06:59:13.261Z,100.00
2023-06-08T07:00:13.140Z,100.00
2023-06-08T07:01:13.295Z,100.00
2023-06-08T07:02:13.176Z,100.00
2023-06-08T07:03:13.228Z,100.00
2023-06-08T07:04:13.301Z,100.00
2023-06-08T07:05:13.323Z,100.00
2023-06-08T07:06:13.438Z,100.00
2023-06-08T07:07:13.773Z,100.00
2023-06-08T07:08:14.055Z,100.00
2023-06-08T07:09:12.965Z,100.00
2023-06-08T07:10:12.986Z,100.00
2023-06-08T07:11:12.918Z,100.00
2023-06-08T07:12:15.622Z,100.00
2023-06-08T07:13:13.553Z,100.00
2023-06-08T07:14:13.420Z,100.00
2023-06-08T07:15:13.185Z,100.00
2023-06-08T07:16:13.021Z,100.00
2023-06-08T07:17:13.213Z,100.00
2023-06-08T07:18:13.080Z,100.00
2023-06-08T07:19:12.984Z,100.00
2023-06-08T07:20:13.210Z,100.00
2023-06-08T07:21:13.464Z,100.00
2023-06-08T07:22:21.185Z,100.00
2023-06-08T07:23:28.904Z,100.00
2023-06-08T07:25:12.042Z,100.00
2023-06-08T07:25:43.982Z,100.00
2023-06-08T07:26:29.956Z,100.00
2023-06-08T07:27:12.899Z,100.00
2023-06-08T07:28:12.830Z,100.00
2023-06-08T07:29:13.798Z,100.00
2023-06-08T07:30:13.584Z,100.00
2023-06-08T07:31:13.584Z,100.00
2023-06-08T07:32:13.542Z,100.00
2023-06-08T07:33:13.535Z,100.00
2023-06-08T07:34:13.548Z,100.00
2023-06-08T07:35:13.289Z,100.00
2023-06-08T07:36:13.383Z,100.00
2023-06-08T07:37:13.291Z,100.00
2023-06-08T07:38:13.134Z,100.00
2023-06-08T07:39:12.958Z,100.00
2023-06-08T07:40:13.072Z,100.00
2023-06-08T07:41:13.259Z,100.00
2023-06-08T07:42:13.516Z,100.00
2023-06-08T07:43:13.386Z,100.00
2023-06-08T07:44:13.428Z,100.00
2023-06-08T07:45:13.253Z,100.00
2023-06-08T07:46:13.051Z,100.00
2023-06-08T07:47:13.005Z,100.00
2023-06-08T07:48:12.972Z,100.00
2023-06-08T07:49:12.726Z,100.00
2023-06-08T07:50:13.684Z,100.00
2023-06-08T07:51:13.659Z,100.00
2023-06-08T07:52:13.465Z,100.00
2023-06-08T07:53:13.304Z,100.00
2023-06-08T07:54:13.174Z,100.00
2023-06-08T07:55:12.985Z,100.00
2023-06-08T07:56:13.094Z,100.00
2023-06-08T07:57:13.298Z,100.00
2023-06-08T07:58:13.392Z,100.00
2023-06-08T07:59:13.283Z,100.00
2023-06-08T08:00:13.247Z,100.00
2023-06-08T08:01:13.021Z,100.00
2023-06-08T08:02:13.056Z,100.00
2023-06-08T08:03:13.242Z,100.00
2023-06-08T08:04:13.241Z,100.00
2023-06-08T08:05:13.260Z,100.00
2023-06-08T08:06:13.119Z,100.00
2023-06-08T08:07:12.929Z,100.00
2023-06-08T08:08:12.744Z,100.00
2023-06-08T08:09:13.465Z,100.00
2023-06-08T08:10:13.531Z,100.00
2023-06-08T08:11:13.567Z,100.00
2023-06-08T08:12:13.626Z,100.00
2023-06-08T08:13:13.419Z,100.00
2023-06-08T08:14:13.254Z,100.00
2023-06-08T08:15:13.158Z,100.00
2023-06-08T08:16:13.335Z,100.00
2023-06-08T08:17:13.231Z,100.00
2023-06-08T08:18:13.160Z,100.00
2023-06-08T08:19:13.156Z,100.00
2023-06-08T08:20:12.984Z,100.00
2023-06-08T08:21:12.940Z,100.00
2023-06-08T08:22:15.211Z,100.00
2023-06-08T08:23:13.380Z,100.00
2023-06-08T08:24:13.299Z,100.00
2023-06-08T08:25:13.103Z,100.00
2023-06-08T08:26:13.053Z,100.00
2023-06-08T08:27:12.856Z,100.00
2023-06-08T08:28:13.946Z,100.00
2023-06-08T08:29:12.735Z,100.00
2023-06-08T08:30:13.670Z,100.00
2023-06-08T08:31:13.793Z,100.00
2023-06-08T08:32:13.607Z,100.00
2023-06-08T08:33:16.534Z,100.00
2023-06-08T08:34:13.425Z,100.00
2023-06-08T08:35:13.270Z,100.00
2023-06-08T08:36:13.093Z,100.00
2023-06-08T08:37:12.889Z,100.00
2023-06-08T08:38:13.001Z,100.00
2023-06-08T08:39:13.021Z,100.00
2023-06-08T08:40:13.214Z,100.00
2023-06-08T08:41:13.343Z,100.00
2023-06-08T08:42:13.235Z,100.00
2023-06-08T08:43:13.242Z,100.00
2023-06-08T08:44:13.183Z,100.00
2023-06-08T08:45:13.042Z,100.00
2023-06-08T08:46:12.997Z,100.00
2023-06-08T08:47:12.892Z,100.00
2023-06-08T08:48:12.983Z,100.00
2023-06-08T08:49:13.167Z,100.00
2023-06-08T08:50:13.272Z,100.00
2023-06-08T08:51:13.066Z,100.00
2023-06-08T08:52:13.615Z,100.00
2023-06-08T08:53:13.606Z,100.00
2023-06-08T08:54:13.812Z,100.00
2023-06-08T08:55:25.921Z,100.00
2023-06-08T08:56:13.164Z,100.00
2023-06-08T08:57:12.971Z,100.00
2023-06-08T08:58:12.807Z,100.00
2023-06-08T08:59:13.637Z,100.00
2023-06-08T09:00:13.524Z,100.00
2023-06-08T09:01:13.509Z,100.00
2023-06-08T09:02:13.568Z,100.00
2023-06-08T09:03:13.492Z,100.00
2023-06-08T09:04:13.555Z,100.00
2023-06-08T09:05:13.502Z,100.00
2023-06-08T09:06:13.304Z,100.00
2023-06-08T09:07:13.450Z,100.00
2023-06-08T09:08:13.212Z,100.00
2023-06-08T09:09:13.137Z,100.00
2023-06-08T09:10:13.056Z,100.00
2023-06-08T09:11:12.901Z,100.00
2023-06-08T09:12:13.911Z,100.00
2023-06-08T09:13:12.968Z,100.00
2023-06-08T09:14:12.924Z,100.00
2023-06-08T09:15:17.893Z,100.00
2023-06-08T09:16:12.712Z,100.00
2023-06-08T09:17:15.528Z,100.00
2023-06-08T09:18:13.458Z,100.00
2023-06-08T09:19:13.428Z,100.00
2023-06-08T09:20:13.292Z,100.00
2023-06-08T09:21:18.285Z,100.00
2023-06-08T09:22:13.053Z,100.00
2023-06-08T09:23:12.966Z,100.00
2023-06-08T09:24:13.045Z,100.00
2023-06-08T09:25:13.203Z,100.00
2023-06-08T09:26:13.112Z,100.00
2023-06-08T09:27:12.950Z,100.00
2023-06-08T09:28:12.834Z,100.00
2023-06-08T09:29:13.859Z,100.00
2023-06-08T09:30:47.994Z,100.00
2023-06-08T09:31:00.297Z,100.00
2023-06-08T09:31:17.289Z,100.00
2023-06-08T09:32:13.327Z,100.00
2023-06-08T09:33:13.345Z,100.00
2023-06-08T09:34:13.332Z,100.00
2023-06-08T09:35:13.275Z,100.00
2023-06-08T09:36:13.194Z,100.00
2023-06-08T09:37:13.303Z,98.10
2023-06-08T09:38:13.320Z,100.00
2023-06-08T09:39:13.336Z,100.00
2023-06-08T09:40:13.185Z,100.00
2023-06-08T09:41:13.189Z,94.00
2023-06-08T09:42:13.200Z,100.00
2023-06-08T09:43:13.329Z,94.10
2023-06-08T09:44:13.696Z,100.00
2023-06-08T09:45:13.662Z,92.90
2023-06-08T09:46:13.464Z,89.50
2023-06-08T09:47:13.427Z,90.00
2023-06-08T09:48:13.391Z,89.00
2023-06-08T09:49:13.281Z,88.90
2023-06-08T09:50:13.307Z,88.30
2023-06-08T09:51:13.104Z,96.50
2023-06-08T09:52:13.135Z,94.40
2023-06-08T09:53:13.114Z,95.60
2023-06-08T09:54:12.911Z,88.70
2023-06-08T09:55:12.969Z,79.10
2023-06-08T09:56:12.748Z,89.00
2023-06-08T09:57:13.693Z,88.90
2023-06-08T09:58:13.442Z,80.80
2023-06-08T09:59:13.280Z,91.20
2023-06-08T10:00:13.329Z,88.00
2023-06-08T10:01:13.542Z,89.50
2023-06-08T10:02:13.542Z,93.40
2023-06-08T10:03:13.735Z,94.30
2023-06-08T10:04:14.689Z,96.20
2023-06-08T10:05:13.510Z,97.50
2023-06-08T10:06:13.287Z,98.70
2023-06-08T10:07:13.106Z,99.80
2023-06-08T10:08:12.933Z,98.30
2023-06-08T10:09:12.985Z,91.60
2023-06-08T10:10:12.953Z,88.20
2023-06-08T10:11:12.837Z,84.20
2023-06-08T10:12:13.956Z,83.20
2023-06-08T10:13:12.976Z,80.60
2023-06-08T10:14:12.878Z,75.10
2023-06-08T10:15:13.748Z,85.70
2023-06-08T10:16:13.692Z,85.90
2023-06-08T10:17:13.772Z,88.10
2023-06-08T10:18:23.797Z,97.70
2023-06-08T10:19:13.670Z,93.30
2023-06-08T10:20:14.595Z,97.10
2023-06-08T10:21:13.640Z,96.60
2023-06-08T10:22:13.427Z,96.10
2023-06-08T10:23:13.204Z,91.00
2023-06-08T10:24:13.544Z,91.50
2023-06-08T10:25:13.942Z,87.40
2023-06-08T10:26:13.383Z,88.90
2023-06-08T10:27:13.580Z,83.40
2023-06-08T10:28:13.801Z,82.40
2023-06-08T10:29:21.657Z,84.30
2023-06-08T10:30:13.211Z,88.10
2023-06-08T10:31:13.222Z,80.80
2023-06-08T10:32:13.063Z,82.30
2023-06-08T10:33:12.943Z,80.70
2023-06-08T10:34:12.956Z,81.50
2023-06-08T10:35:12.862Z,84.50
2023-06-08T10:36:13.801Z,86.30
2023-06-08T10:37:13.664Z,86.50
2023-06-08T10:38:13.548Z,85.60
2023-06-08T10:39:13.601Z,91.90
2023-06-08T10:40:13.373Z,93.00
2023-06-08T10:41:13.184Z,90.40
2023-06-08T10:42:13.324Z,87.20
2023-06-08T10:43:33.695Z,85.20
2023-06-08T10:44:12.907Z,90.30
2023-06-08T10:45:12.638Z,88.30
2023-06-08T10:46:13.490Z,81.80
2023-06-08T10:47:13.489Z,82.10
2023-06-08T10:48:13.371Z,77.90
2023-06-08T10:49:13.356Z,80.30
2023-06-08T10:50:13.406Z,82.00
2023-06-08T10:51:13.308Z,81.10
2023-06-08T10:52:13.208Z,78.30
2023-06-08T10:53:13.338Z,80.30
2023-06-08T10:54:13.329Z,87.00
2023-06-08T10:55:13.140Z,88.40
2023-06-08T10:56:13.161Z,83.40
2023-06-08T10:57:15.523Z,89.50
2023-06-08T10:58:13.532Z,80.20
2023-06-08T10:59:13.397Z,87.10
2023-06-08T11:00:14.454Z,84.80
2023-06-08T11:01:13.323Z,86.10
2023-06-08T11:02:13.592Z,81.60
2023-06-08T11:03:13.564Z,82.70
2023-06-08T11:04:18.210Z,81.30
2023-06-08T11:05:13.255Z,69.80
2023-06-08T11:06:13.383Z,76.00
2023-06-08T11:07:13.163Z,85.30
2023-06-08T11:08:13.017Z,87.10
2023-06-08T11:09:13.475Z,89.20
2023-06-08T11:10:13.520Z,85.60
2023-06-08T11:11:13.509Z,79.80
2023-06-08T11:12:13.277Z,79.90
2023-06-08T11:13:13.064Z,74.90
2023-06-08T11:14:13.277Z,76.00
2023-06-08T11:15:13.214Z,83.20
2023-06-08T11:16:14.077Z,76.20
2023-06-08T11:17:12.891Z,70.40
2023-06-08T11:18:12.888Z,72.10
2023-06-08T11:19:12.672Z,71.20
2023-06-08T11:20:13.490Z,79.60
2023-06-08T11:21:13.341Z,80.30
2023-06-08T11:22:13.119Z,83.70
2023-06-08T11:23:13.032Z,81.60
2023-06-08T11:24:12.841Z,71.90
2023-06-08T11:25:12.896Z,63.20
2023-06-08T11:26:12.619Z,68.20
2023-06-08T11:27:13.400Z,70.40
2023-06-08T11:28:13.197Z,73.20
2023-06-08T11:29:13.259Z,73.40
2023-06-08T11:30:18.246Z,77.70
2023-06-08T11:31:13.299Z,79.00
2023-06-08T11:32:13.284Z,75.30
2023-06-08T11:33:23.917Z,80.10
2023-06-08T11:34:38.536Z,79.90
2023-06-08T11:35:20.125Z,72.70
2023-06-08T11:36:18.495Z,76.10
2023-06-08T11:37:49.685Z,78.20
2023-06-08T11:38:13.985Z,77.80
2023-06-08T11:40:12.969Z,80.10
2023-06-08T11:41:12.721Z,80.90
2023-06-08T11:42:13.806Z,77.40
2023-06-08T11:43:13.669Z,78.90
2023-06-08T11:44:13.487Z,79.70
2023-06-08T11:45:13.419Z,80.70
2023-06-08T11:46:13.305Z,75.80
2023-06-08T11:47:13.266Z,74.80
2023-06-08T11:48:17.318Z,69.50
2023-06-08T11:49:13.570Z,67.40
2023-06-08T11:50:13.501Z,73.60
2023-06-08T11:51:13.800Z,73.60
2023-06-08T11:52:13.769Z,71.40
2023-06-08T11:53:13.871Z,71.90
2023-06-08T11:54:13.683Z,71.70
2023-06-08T11:55:14.172Z,74.30
2023-06-08T11:56:13.121Z,66.80
2023-06-08T11:57:12.940Z,68.50
2023-06-08T11:58:12.865Z,74.20
2023-06-08T11:59:13.680Z,71.50
2023-06-08T12:00:13.649Z,71.50
2023-06-08T12:01:23.527Z,67.50
2023-06-08T12:02:13.398Z,69.70
2023-06-08T12:03:13.368Z,68.00
2023-06-08T12:04:13.739Z,69.70
2023-06-08T12:05:13.733Z,67.10
2023-06-08T12:06:13.613Z,69.70
2023-06-08T12:07:13.551Z,75.60
2023-06-08T12:08:13.384Z,72.60
2023-06-08T12:09:13.369Z,72.70
2023-06-08T12:10:13.185Z,72.70
2023-06-08T12:11:12.995Z,67.80
2023-06-08T12:12:13.266Z,69.80
2023-06-08T12:13:13.263Z,59.70
2023-06-08T12:14:13.160Z,66.50
2023-06-08T12:15:13.035Z,68.10
2023-06-08T12:16:13.393Z,69.00
2023-06-08T12:17:13.352Z,70.90
2023-06-08T12:18:13.340Z,67.90
2023-06-08T12:19:13.822Z,68.50
2023-06-08T12:20:13.656Z,65.00
2023-06-08T12:21:13.509Z,63.10
2023-06-08T12:22:13.355Z,62.70
2023-06-08T12:23:19.868Z,62.50
2023-06-08T12:24:12.949Z,58.20
2023-06-08T12:25:12.973Z,61.90
2023-06-08T12:26:23.433Z,57.40
2023-06-08T12:27:13.510Z,57.20
2023-06-08T12:28:13.709Z,52.90
2023-06-08T12:29:13.706Z,57.00
2023-06-08T12:30:18.865Z,59.50
2023-06-08T12:31:14.155Z,59.40
2023-06-08T12:32:13.618Z,59.80
2023-06-08T12:33:13.733Z,55.20